sensor_id;sensor_type;location;lat;lon;timestamp;temperature;humidity
16174;DHT22;14031;50.158;8.626;2023-03-15T00:01:57;6.90;99.90
16174;DHT22;14031;50.158;8.626;2023-03-15T00:04:24;6.80;99.90
16174;DHT22;14031;50.158;8.626;2023-03-15T00:06:51;6.70;99.90
16174;DHT22;14031;50.158;8.626;2023-03-15T00:09:18;6.70;99.90
16174;DHT22;14031;50.158;8.626;2023-03-15T00:11:48;6.70;99.90
16174;DHT22;14031;50.158;8.626;2023-03-15T00:14:14;6.70;99.90
16174;DHT22;14031;50.158;8.626;2023-03-15T00:16:41;6.60;99.90
16174;DHT22;14031;50.158;8.626;2023-03-15T00:19:08;6.60;99.90
16174;DHT22;14031;50.158;8.626;2023-03-15T00:21:36;6.50;99.90
16174;DHT22;14031;50.158;8.626;2023-03-15T00:24:04;6.50;99.90
16174;DHT22;14031;50.158;8.626;2023-03-15T00:26:31;6.50;99.90
16174;DHT22;14031;50.158;8.626;2023-03-15T00:29:00;6.40;99.90
16174;DHT22;14031;50.158;8.626;2023-03-15T00:31:26;6.30;99.90
16174;DHT22;14031;50.158;8.626;2023-03-15T00:33:53;6.40;99.90
16174;DHT22;14031;50.158;8.626;2023-03-15T00:36:20;6.20;99.90
16174;DHT22;14031;50.158;8.626;2023-03-15T00:38:49;6.50;99.90
16174;DHT22;14031;50.158;8.626;2023-03-15T00:41:17;6.30;99.90
16174;DHT22;14031;50.158;8.626;2023-03-15T00:43:44;6.20;99.90
16174;DHT22;14031;50.158;8.626;2023-03-15T00:46:13;6.10;99.90
16174;DHT22;14031;50.158;8.626;2023-03-15T00:48:40;6.20;99.90
16174;DHT22;14031;50.158;8.626;2023-03-15T00:51:08;6.10;99.90
16174;DHT22;14031;50.158;8.626;2023-03-15T00:53:37;6.00;99.90
16174;DHT22;14031;50.158;8.626;2023-03-15T00:56:05;5.90;99.90
16174;DHT22;14031;50.158;8.626;2023-03-15T00:58:31;5.80;99.90
16174;DHT22;14031;50.158;8.626;2023-03-15T01:00:58;5.80;99.90
16174;DHT22;14031;50.158;8.626;2023-03-15T01:03:27;5.80;99.90
16174;DHT22;14031;50.158;8.626;2023-03-15T01:05:54;5.80;99.90
16174;DHT22;14031;50.158;8.626;2023-03-15T01:08:21;5.80;99.90
16174;DHT22;14031;50.158;8.626;2023-03-15T01:10:48;5.80;99.90
16174;DHT22;14031;50.158;8.626;2023-03-15T01:13:15;5.80;99.90
16174;DHT22;14031;50.158;8.626;2023-03-15T01:15:44;5.80;99.90
16174;DHT22;14031;50.158;8.626;2023-03-15T01:18:11;5.80;99.90
16174;DHT22;14031;50.158;8.626;2023-03-15T01:20:42;5.80;99.90
16174;DHT22;14031;50.158;8.626;2023-03-15T01:23:10;5.80;99.90
16174;DHT22;14031;50.158;8.626;2023-03-15T01:25:37;5.80;99.90
16174;DHT22;14031;50.158;8.626;2023-03-15T01:28:04;5.70;99.90
16174;DHT22;14031;50.158;8.626;2023-03-15T01:30:31;5.70;99.90
16174;DHT22;14031;50.158;8.626;2023-03-15T01:32:58;5.70;99.90
16174;DHT22;14031;50.158;8.626;2023-03-15T01:35:25;5.60;99.90
16174;DHT22;14031;50.158;8.626;2023-03-15T01:37:53;5.70;99.90
16174;DHT22;14031;50.158;8.626;2023-03-15T01:40:20;5.70;99.90
16174;DHT22;14031;50.158;8.626;2023-03-15T01:42:51;5.80;99.90
16174;DHT22;14031;50.158;8.626;2023-03-15T01:48:37;5.60;99.90
16174;DHT22;14031;50.158;8.626;2023-03-15T01:51:08;5.70;99.90
16174;DHT22;14031;50.158;8.626;2023-03-15T01:53:43;5.60;99.90
16174;DHT22;14031;50.158;8.626;2023-03-15T01:56:12;5.50;99.90
16174;DHT22;14031;50.158;8.626;2023-03-15T01:58:42;5.60;99.90
16174;DHT22;14031;50.158;8.626;2023-03-15T02:01:11;5.50;99.90
16174;DHT22;14031;50.158;8.626;2023-03-15T02:03:41;5.50;99.90
16174;DHT22;14031;50.158;8.626;2023-03-15T02:06:15;5.50;99.90
16174;DHT22;14031;50.158;8.626;2023-03-15T02:08:47;5.50;99.90
16174;DHT22;14031;50.158;8.626;2023-03-15T02:11:16;5.40;99.90
16174;DHT22;14031;50.158;8.626;2023-03-15T02:13:45;5.40;99.90
16174;DHT22;14031;50.158;8.626;2023-03-15T02:16:13;5.40;99.90
16174;DHT22;14031;50.158;8.626;2023-03-15T02:18:40;5.40;99.90
16174;DHT22;14031;50.158;8.626;2023-03-15T02:21:13;5.40;99.90
16174;DHT22;14031;50.158;8.626;2023-03-15T02:23:53;5.30;99.90
16174;DHT22;14031;50.158;8.626;2023-03-15T02:26:28;5.20;99.90
16174;DHT22;14031;50.158;8.626;2023-03-15T02:28:59;5.30;99.90
16174;DHT22;14031;50.158;8.626;2023-03-15T02:31:28;5.30;99.90
16174;DHT22;14031;50.158;8.626;2023-03-15T02:34:03;5.30;99.90
16174;DHT22;14031;50.158;8.626;2023-03-15T02:36:31;5.20;99.90
16174;DHT22;14031;50.158;8.626;2023-03-15T02:38:59;5.20;99.90
16174;DHT22;14031;50.158;8.626;2023-03-15T02:41:29;5.20;99.90
16174;DHT22;14031;50.158;8.626;2023-03-15T02:44:01;5.20;99.90
16174;DHT22;14031;50.158;8.626;2023-03-15T02:46:29;5.20;99.90
16174;DHT22;14031;50.158;8.626;2023-03-15T02:48:56;5.20;99.90
16174;DHT22;14031;50.158;8.626;2023-03-15T02:51:26;5.10;99.90
16174;DHT22;14031;50.158;8.626;2023-03-15T02:53:54;5.00;99.90
16174;DHT22;14031;50.158;8.626;2023-03-15T02:56:20;5.00;99.90
16174;DHT22;14031;50.158;8.626;2023-03-15T02:58:47;5.10;99.90
16174;DHT22;14031;50.158;8.626;2023-03-15T03:01:17;5.00;99.90
16174;DHT22;14031;50.158;8.626;2023-03-15T03:03:45;5.10;99.90
16174;DHT22;14031;50.158;8.626;2023-03-15T03:06:14;5.00;99.90
16174;DHT22;14031;50.158;8.626;2023-03-15T03:08:42;5.00;99.90
16174;DHT22;14031;50.158;8.626;2023-03-15T03:11:12;5.00;99.90
16174;DHT22;14031;50.158;8.626;2023-03-15T03:13:39;5.00;99.90
16174;DHT22;14031;50.158;8.626;2023-03-15T03:16:06;5.00;99.90
16174;DHT22;14031;50.158;8.626;2023-03-15T03:18:34;5.00;99.90
16174;DHT22;14031;50.158;8.626;2023-03-15T03:21:02;5.00;99.90
16174;DHT22;14031;50.158;8.626;2023-03-15T03:23:30;5.10;99.90
16174;DHT22;14031;50.158;8.626;2023-03-15T03:25:59;5.10;99.90
16174;DHT22;14031;50.158;8.626;2023-03-15T03:28:27;5.00;99.90
16174;DHT22;14031;50.158;8.626;2023-03-15T03:30:55;5.00;99.90
16174;DHT22;14031;50.158;8.626;2023-03-15T03:33:23;4.90;99.90
16174;DHT22;14031;50.158;8.626;2023-03-15T03:35:51;5.00;99.90
16174;DHT22;14031;50.158;8.626;2023-03-15T03:38:19;5.00;99.90
16174;DHT22;14031;50.158;8.626;2023-03-15T03:40:45;5.10;99.90
16174;DHT22;14031;50.158;8.626;2023-03-15T03:43:12;5.00;99.90
16174;DHT22;14031;50.158;8.626;2023-03-15T03:45:39;4.90;99.90
16174;DHT22;14031;50.158;8.626;2023-03-15T03:48:06;4.90;99.90
16174;DHT22;14031;50.158;8.626;2023-03-15T03:50:33;4.90;99.90
16174;DHT22;14031;50.158;8.626;2023-03-15T03:53:01;4.90;99.90
16174;DHT22;14031;50.158;8.626;2023-03-15T03:55:28;4.90;99.90
16174;DHT22;14031;50.158;8.626;2023-03-15T03:57:58;4.90;99.90
16174;DHT22;14031;50.158;8.626;2023-03-15T04:00:25;4.80;99.90
16174;DHT22;14031;50.158;8.626;2023-03-15T04:02:51;4.90;99.90
16174;DHT22;14031;50.158;8.626;2023-03-15T04:05:19;4.80;99.90
16174;DHT22;14031;50.158;8.626;2023-03-15T04:07:46;4.80;99.90
16174;DHT22;14031;50.158;8.626;2023-03-15T04:10:15;4.80;99.90
16174;DHT22;14031;50.158;8.626;2023-03-15T04:12:41;4.70;99.90
16174;DHT22;14031;50.158;8.626;2023-03-15T04:15:09;4.70;99.90
16174;DHT22;14031;50.158;8.626;2023-03-15T04:17:36;4.70;99.90
16174;DHT22;14031;50.158;8.626;2023-03-15T04:20:04;4.60;99.90
16174;DHT22;14031;50.158;8.626;2023-03-15T04:22:32;4.60;99.90
16174;DHT22;14031;50.158;8.626;2023-03-15T04:25:00;4.60;99.90
16174;DHT22;14031;50.158;8.626;2023-03-15T04:27:28;4.50;99.90
16174;DHT22;14031;50.158;8.626;2023-03-15T04:29:55;4.50;99.90
16174;DHT22;14031;50.158;8.626;2023-03-15T04:32:22;4.50;99.90
16174;DHT22;14031;50.158;8.626;2023-03-15T04:34:49;4.60;99.90
16174;DHT22;14031;50.158;8.626;2023-03-15T04:37:16;4.60;99.90
16174;DHT22;14031;50.158;8.626;2023-03-15T04:39:42;4.50;99.90
16174;DHT22;14031;50.158;8.626;2023-03-15T04:42:10;4.70;99.90
16174;DHT22;14031;50.158;8.626;2023-03-15T04:44:38;4.50;99.90
16174;DHT22;14031;50.158;8.626;2023-03-15T04:47:05;4.50;99.90
16174;DHT22;14031;50.158;8.626;2023-03-15T04:49:32;4.50;99.90
16174;DHT22;14031;50.158;8.626;2023-03-15T04:51:59;4.50;99.90
16174;DHT22;14031;50.158;8.626;2023-03-15T04:54:26;4.40;99.90
16174;DHT22;14031;50.158;8.626;2023-03-15T04:56:52;4.50;99.90
16174;DHT22;14031;50.158;8.626;2023-03-15T04:59:19;4.50;99.90
16174;DHT22;14031;50.158;8.626;2023-03-15T05:01:47;4.60;99.90
16174;DHT22;14031;50.158;8.626;2023-03-15T05:04:14;4.60;99.90
16174;DHT22;14031;50.158;8.626;2023-03-15T05:06:41;4.60;99.90
16174;DHT22;14031;50.158;8.626;2023-03-15T05:09:08;4.70;99.90
16174;DHT22;14031;50.158;8.626;2023-03-15T05:11:42;4.70;99.90
16174;DHT22;14031;50.158;8.626;2023-03-15T05:14:09;4.80;99.90
16174;DHT22;14031;50.158;8.626;2023-03-15T05:16:35;4.70;99.90
16174;DHT22;14031;50.158;8.626;2023-03-15T05:19:04;4.70;99.90
16174;DHT22;14031;50.158;8.626;2023-03-15T05:21:30;4.70;99.90
16174;DHT22;14031;50.158;8.626;2023-03-15T05:23:57;4.60;99.90
16174;DHT22;14031;50.158;8.626;2023-03-15T05:26:24;4.60;99.90
16174;DHT22;14031;50.158;8.626;2023-03-15T05:28:51;4.60;99.90
16174;DHT22;14031;50.158;8.626;2023-03-15T05:31:17;4.60;99.90
16174;DHT22;14031;50.158;8.626;2023-03-15T05:33:45;4.60;99.90
16174;DHT22;14031;50.158;8.626;2023-03-15T05:36:14;4.60;99.90
16174;DHT22;14031;50.158;8.626;2023-03-15T05:38:42;4.60;99.90
16174;DHT22;14031;50.158;8.626;2023-03-15T05:41:08;4.60;99.90
16174;DHT22;14031;50.158;8.626;2023-03-15T05:43:35;4.80;99.90
16174;DHT22;14031;50.158;8.626;2023-03-15T05:46:02;4.70;99.90
16174;DHT22;14031;50.158;8.626;2023-03-15T05:48:29;4.60;99.90
16174;DHT22;14031;50.158;8.626;2023-03-15T05:50:56;4.60;99.90
16174;DHT22;14031;50.158;8.626;2023-03-15T05:53:25;4.60;99.90
16174;DHT22;14031;50.158;8.626;2023-03-15T05:55:51;4.60;99.90
16174;DHT22;14031;50.158;8.626;2023-03-15T05:58:18;4.60;99.90
16174;DHT22;14031;50.158;8.626;2023-03-15T06:00:45;4.60;99.90
16174;DHT22;14031;50.158;8.626;2023-03-15T06:03:13;4.50;99.90
16174;DHT22;14031;50.158;8.626;2023-03-15T06:05:40;4.60;99.90
16174;DHT22;14031;50.158;8.626;2023-03-15T06:08:07;4.50;99.90
16174;DHT22;14031;50.158;8.626;2023-03-15T06:10:42;4.50;99.90
16174;DHT22;14031;50.158;8.626;2023-03-15T06:13:09;4.60;99.90
16174;DHT22;14031;50.158;8.626;2023-03-15T06:15:35;4.30;99.90
16174;DHT22;14031;50.158;8.626;2023-03-15T06:18:02;4.40;99.90
16174;DHT22;14031;50.158;8.626;2023-03-15T06:20:29;4.30;99.90
16174;DHT22;14031;50.158;8.626;2023-03-15T06:22:56;4.20;99.90
16174;DHT22;14031;50.158;8.626;2023-03-15T06:25:23;4.20;99.90
16174;DHT22;14031;50.158;8.626;2023-03-15T06:27:51;4.20;99.90
16174;DHT22;14031;50.158;8.626;2023-03-15T06:30:18;4.20;99.90
16174;DHT22;14031;50.158;8.626;2023-03-15T06:32:45;4.20;99.90
16174;DHT22;14031;50.158;8.626;2023-03-15T06:35:12;4.20;99.90
16174;DHT22;14031;50.158;8.626;2023-03-15T06:37:39;4.30;99.90
16174;DHT22;14031;50.158;8.626;2023-03-15T06:40:07;4.30;99.90
16174;DHT22;14031;50.158;8.626;2023-03-15T06:42:36;4.30;99.90
16174;DHT22;14031;50.158;8.626;2023-03-15T06:45:05;4.30;99.90
16174;DHT22;14031;50.158;8.626;2023-03-15T06:47:33;4.30;99.90
16174;DHT22;14031;50.158;8.626;2023-03-15T06:50:00;4.30;99.90
16174;DHT22;14031;50.158;8.626;2023-03-15T06:52:27;4.30;99.90
16174;DHT22;14031;50.158;8.626;2023-03-15T06:54:54;4.30;99.90
16174;DHT22;14031;50.158;8.626;2023-03-15T06:57:20;4.30;99.90
16174;DHT22;14031;50.158;8.626;2023-03-15T06:59:47;4.30;99.90
16174;DHT22;14031;50.158;8.626;2023-03-15T07:02:17;4.30;99.90
16174;DHT22;14031;50.158;8.626;2023-03-15T07:04:44;4.30;99.90
16174;DHT22;14031;50.158;8.626;2023-03-15T07:07:11;4.20;99.90
16174;DHT22;14031;50.158;8.626;2023-03-15T07:09:38;4.20;99.90
16174;DHT22;14031;50.158;8.626;2023-03-15T07:12:05;4.30;99.90
16174;DHT22;14031;50.158;8.626;2023-03-15T07:14:33;4.30;99.90
16174;DHT22;14031;50.158;8.626;2023-03-15T07:17:00;4.30;99.90
16174;DHT22;14031;50.158;8.626;2023-03-15T07:19:28;4.40;99.90
16174;DHT22;14031;50.158;8.626;2023-03-15T07:21:55;4.30;99.90
16174;DHT22;14031;50.158;8.626;2023-03-15T07:24:21;4.30;99.90
16174;DHT22;14031;50.158;8.626;2023-03-15T07:26:48;4.30;99.90
16174;DHT22;14031;50.158;8.626;2023-03-15T07:29:19;4.30;99.90
16174;DHT22;14031;50.158;8.626;2023-03-15T07:31:45;4.30;99.90
16174;DHT22;14031;50.158;8.626;2023-03-15T07:34:12;4.30;99.90
16174;DHT22;14031;50.158;8.626;2023-03-15T07:36:40;4.30;99.90
16174;DHT22;14031;50.158;8.626;2023-03-15T07:39:07;4.30;99.90
16174;DHT22;14031;50.158;8.626;2023-03-15T07:41:35;4.30;99.90
16174;DHT22;14031;50.158;8.626;2023-03-15T07:44:02;4.30;99.90
16174;DHT22;14031;50.158;8.626;2023-03-15T07:46:29;4.40;99.90
16174;DHT22;14031;50.158;8.626;2023-03-15T07:48:56;4.40;99.90
16174;DHT22;14031;50.158;8.626;2023-03-15T07:51:23;4.40;99.90
16174;DHT22;14031;50.158;8.626;2023-03-15T07:53:51;4.50;99.90
16174;DHT22;14031;50.158;8.626;2023-03-15T07:56:17;4.50;99.90
16174;DHT22;14031;50.158;8.626;2023-03-15T07:58:44;4.60;99.90
16174;DHT22;14031;50.158;8.626;2023-03-15T08:01:11;4.60;99.90
16174;DHT22;14031;50.158;8.626;2023-03-15T08:03:38;4.70;99.90
16174;DHT22;14031;50.158;8.626;2023-03-15T08:06:06;4.70;99.90
16174;DHT22;14031;50.158;8.626;2023-03-15T08:08:33;4.80;99.90
16174;DHT22;14031;50.158;8.626;2023-03-15T08:11:01;4.80;99.90
16174;DHT22;14031;50.158;8.626;2023-03-15T08:13:30;4.90;99.90
16174;DHT22;14031;50.158;8.626;2023-03-15T08:15:56;4.90;99.90
16174;DHT22;14031;50.158;8.626;2023-03-15T08:18:23;5.10;99.90
16174;DHT22;14031;50.158;8.626;2023-03-15T08:20:53;5.20;99.90
16174;DHT22;14031;50.158;8.626;2023-03-15T08:23:20;5.30;99.90
16174;DHT22;14031;50.158;8.626;2023-03-15T08:25:47;5.40;99.90
16174;DHT22;14031;50.158;8.626;2023-03-15T08:28:16;5.40;99.90
16174;DHT22;14031;50.158;8.626;2023-03-15T08:30:43;5.40;99.90
16174;DHT22;14031;50.158;8.626;2023-03-15T08:33:10;5.40;99.90
16174;DHT22;14031;50.158;8.626;2023-03-15T08:35:37;5.40;99.90
16174;DHT22;14031;50.158;8.626;2023-03-15T08:38:05;5.50;99.90
16174;DHT22;14031;50.158;8.626;2023-03-15T08:40:34;5.60;99.90
16174;DHT22;14031;50.158;8.626;2023-03-15T08:43:00;5.80;99.90
16174;DHT22;14031;50.158;8.626;2023-03-15T08:45:29;5.80;99.90
16174;DHT22;14031;50.158;8.626;2023-03-15T08:47:56;5.70;99.90
16174;DHT22;14031;50.158;8.626;2023-03-15T08:50:23;5.70;99.90
16174;DHT22;14031;50.158;8.626;2023-03-15T08:52:51;5.70;99.90
16174;DHT22;14031;50.158;8.626;2023-03-15T08:55:18;5.80;99.90
16174;DHT22;14031;50.158;8.626;2023-03-15T08:57:45;5.60;99.90
16174;DHT22;14031;50.158;8.626;2023-03-15T09:00:13;5.70;99.90
16174;DHT22;14031;50.158;8.626;2023-03-15T09:02:43;5.60;99.90
16174;DHT22;14031;50.158;8.626;2023-03-15T09:05:13;5.60;99.90
16174;DHT22;14031;50.158;8.626;2023-03-15T09:07:40;5.60;99.90
16174;DHT22;14031;50.158;8.626;2023-03-15T09:10:08;5.80;99.90
16174;DHT22;14031;50.158;8.626;2023-03-15T09:12:34;5.90;99.90
16174;DHT22;14031;50.158;8.626;2023-03-15T09:15:01;5.90;99.90
16174;DHT22;14031;50.158;8.626;2023-03-15T09:17:28;6.30;99.90
16174;DHT22;14031;50.158;8.626;2023-03-15T09:19:56;6.40;99.90
16174;DHT22;14031;50.158;8.626;2023-03-15T09:22:23;6.50;99.90
16174;DHT22;14031;50.158;8.626;2023-03-15T09:24:50;6.60;99.90
16174;DHT22;14031;50.158;8.626;2023-03-15T09:27:17;6.80;99.90
16174;DHT22;14031;50.158;8.626;2023-03-15T09:29:45;6.90;99.90
16174;DHT22;14031;50.158;8.626;2023-03-15T09:32:12;7.00;99.90
16174;DHT22;14031;50.158;8.626;2023-03-15T09:34:39;7.00;99.90
16174;DHT22;14031;50.158;8.626;2023-03-15T09:37:08;7.10;99.90
16174;DHT22;14031;50.158;8.626;2023-03-15T09:39:35;7.20;99.90
16174;DHT22;14031;50.158;8.626;2023-03-15T09:42:03;7.20;99.90
16174;DHT22;14031;50.158;8.626;2023-03-15T09:44:43;7.30;99.90
16174;DHT22;14031;50.158;8.626;2023-03-15T09:47:27;7.30;99.90
16174;DHT22;14031;50.158;8.626;2023-03-15T09:50:03;7.00;99.90
16174;DHT22;14031;50.158;8.626;2023-03-15T09:52:36;6.80;99.90
16174;DHT22;14031;50.158;8.626;2023-03-15T09:55:08;6.70;99.90
16174;DHT22;14031;50.158;8.626;2023-03-15T09:57:40;6.70;99.90
16174;DHT22;14031;50.158;8.626;2023-03-15T10:00:13;6.90;99.90
16174;DHT22;14031;50.158;8.626;2023-03-15T10:02:45;6.80;99.90
16174;DHT22;14031;50.158;8.626;2023-03-15T10:05:17;6.80;99.90
16174;DHT22;14031;50.158;8.626;2023-03-15T10:07:46;6.90;99.90
16174;DHT22;14031;50.158;8.626;2023-03-15T10:10:18;7.10;99.90
16174;DHT22;14031;50.158;8.626;2023-03-15T10:12:54;7.00;99.90
16174;DHT22;14031;50.158;8.626;2023-03-15T10:15:36;7.20;99.90
16174;DHT22;14031;50.158;8.626;2023-03-15T10:18:30;7.10;99.90
16174;DHT22;14031;50.158;8.626;2023-03-15T10:21:03;7.00;99.90
16174;DHT22;14031;50.158;8.626;2023-03-15T10:23:38;7.00;99.90
16174;DHT22;14031;50.158;8.626;2023-03-15T10:26:10;6.90;99.90
16174;DHT22;14031;50.158;8.626;2023-03-15T10:28:41;7.00;99.90
16174;DHT22;14031;50.158;8.626;2023-03-15T10:31:12;7.00;99.90
16174;DHT22;14031;50.158;8.626;2023-03-15T10:33:40;7.00;99.90
16174;DHT22;14031;50.158;8.626;2023-03-15T10:36:14;7.10;99.90
16174;DHT22;14031;50.158;8.626;2023-03-15T10:38:43;7.20;99.90
16174;DHT22;14031;50.158;8.626;2023-03-15T10:41:11;7.20;99.90
16174;DHT22;14031;50.158;8.626;2023-03-15T10:43:40;7.40;99.90
16174;DHT22;14031;50.158;8.626;2023-03-15T10:46:08;7.30;99.90
16174;DHT22;14031;50.158;8.626;2023-03-15T10:48:38;7.40;99.90
16174;DHT22;14031;50.158;8.626;2023-03-15T10:51:13;7.50;99.90
16174;DHT22;14031;50.158;8.626;2023-03-15T10:53:52;7.50;99.90
16174;DHT22;14031;50.158;8.626;2023-03-15T10:56:23;7.60;99.90
16174;DHT22;14031;50.158;8.626;2023-03-15T10:58:53;7.50;99.90
16174;DHT22;14031;50.158;8.626;2023-03-15T11:01:25;7.40;99.90
16174;DHT22;14031;50.158;8.626;2023-03-15T11:04:10;7.40;99.90
16174;DHT22;14031;50.158;8.626;2023-03-15T11:06:41;7.70;99.90
16174;DHT22;14031;50.158;8.626;2023-03-15T11:09:11;7.70;99.90
16174;DHT22;14031;50.158;8.626;2023-03-15T11:11:57;7.70;99.90
16174;DHT22;14031;50.158;8.626;2023-03-15T11:14:27;7.80;99.90
16174;DHT22;14031;50.158;8.626;2023-03-15T11:16:58;7.90;99.90
16174;DHT22;14031;50.158;8.626;2023-03-15T11:19:26;7.80;99.90
16174;DHT22;14031;50.158;8.626;2023-03-15T11:21:55;7.80;99.90
16174;DHT22;14031;50.158;8.626;2023-03-15T11:24:26;7.90;99.90
16174;DHT22;14031;50.158;8.626;2023-03-15T11:26:56;8.00;99.90
16174;DHT22;14031;50.158;8.626;2023-03-15T11:29:28;8.10;99.90
16174;DHT22;14031;50.158;8.626;2023-03-15T11:31:57;8.20;99.90
16174;DHT22;14031;50.158;8.626;2023-03-15T11:34:35;8.10;99.90
16174;DHT22;14031;50.158;8.626;2023-03-15T11:37:04;8.20;99.90
16174;DHT22;14031;50.158;8.626;2023-03-15T11:39:38;8.10;99.90
16174;DHT22;14031;50.158;8.626;2023-03-15T11:42:13;8.30;99.90
16174;DHT22;14031;50.158;8.626;2023-03-15T11:44:44;8.40;99.90
16174;DHT22;14031;50.158;8.626;2023-03-15T11:47:17;8.40;99.90
16174;DHT22;14031;50.158;8.626;2023-03-15T11:49:49;8.30;99.90
16174;DHT22;14031;50.158;8.626;2023-03-15T11:52:17;8.30;99.90
16174;DHT22;14031;50.158;8.626;2023-03-15T11:54:46;8.20;99.90
16174;DHT22;14031;50.158;8.626;2023-03-15T11:57:39;8.10;99.90
16174;DHT22;14031;50.158;8.626;2023-03-15T12:00:24;8.20;99.90
16174;DHT22;14031;50.158;8.626;2023-03-15T12:02:54;8.20;99.90
16174;DHT22;14031;50.158;8.626;2023-03-15T12:05:44;8.40;99.90
16174;DHT22;14031;50.158;8.626;2023-03-15T12:08:19;8.30;99.90
16174;DHT22;14031;50.158;8.626;2023-03-15T12:10:48;8.30;99.90
16174;DHT22;14031;50.158;8.626;2023-03-15T12:13:28;8.40;99.90
16174;DHT22;14031;50.158;8.626;2023-03-15T12:15:57;8.40;99.90
16174;DHT22;14031;50.158;8.626;2023-03-15T12:18:32;8.50;99.90
16174;DHT22;14031;50.158;8.626;2023-03-15T12:21:13;8.50;99.90
16174;DHT22;14031;50.158;8.626;2023-03-15T12:23:58;8.50;99.90
16174;DHT22;14031;50.158;8.626;2023-03-15T12:26:40;8.40;99.90
16174;DHT22;14031;50.158;8.626;2023-03-15T12:29:23;8.40;99.90
16174;DHT22;14031;50.158;8.626;2023-03-15T12:32:07;8.30;99.90
16174;DHT22;14031;50.158;8.626;2023-03-15T12:34:45;8.30;99.90
16174;DHT22;14031;50.158;8.626;2023-03-15T12:37:17;8.40;99.90
16174;DHT22;14031;50.158;8.626;2023-03-15T12:39:47;8.50;99.90
16174;DHT22;14031;50.158;8.626;2023-03-15T12:45:44;9.00;99.90
16174;DHT22;14031;50.158;8.626;2023-03-15T12:48:23;8.90;99.90
16174;DHT22;14031;50.158;8.626;2023-03-15T12:50:58;8.80;99.90
16174;DHT22;14031;50.158;8.626;2023-03-15T12:53:48;8.80;99.90
16174;DHT22;14031;50.158;8.626;2023-03-15T12:56:41;8.70;99.90
16174;DHT22;14031;50.158;8.626;2023-03-15T13:02:01;8.80;99.90
16174;DHT22;14031;50.158;8.626;2023-03-15T13:04:29;8.80;99.90
16174;DHT22;14031;50.158;8.626;2023-03-15T13:07:21;8.80;99.90
16174;DHT22;14031;50.158;8.626;2023-03-15T13:12:52;8.90;99.90
16174;DHT22;14031;50.158;8.626;2023-03-15T13:15:23;8.80;99.90
16174;DHT22;14031;50.158;8.626;2023-03-15T13:17:56;8.80;99.90
16174;DHT22;14031;50.158;8.626;2023-03-15T13:20:41;8.80;99.90
16174;DHT22;14031;50.158;8.626;2023-03-15T13:23:14;9.00;99.90
16174;DHT22;14031;50.158;8.626;2023-03-15T13:25:50;9.30;99.90
16174;DHT22;14031;50.158;8.626;2023-03-15T13:28:21;9.70;99.90
16174;DHT22;14031;50.158;8.626;2023-03-15T13:30:50;10.00;99.90
16174;DHT22;14031;50.158;8.626;2023-03-15T13:33:21;10.40;99.90
16174;DHT22;14031;50.158;8.626;2023-03-15T13:35:55;10.70;99.90
16174;DHT22;14031;50.158;8.626;2023-03-15T13:38:28;10.80;99.90
16174;DHT22;14031;50.158;8.626;2023-03-15T13:40:56;11.00;99.90
16174;DHT22;14031;50.158;8.626;2023-03-15T13:43:28;11.10;99.90
16174;DHT22;14031;50.158;8.626;2023-03-15T13:45:56;11.20;99.90
16174;DHT22;14031;50.158;8.626;2023-03-15T13:48:27;11.00;99.90
16174;DHT22;14031;50.158;8.626;2023-03-15T13:51:01;10.90;99.90
16174;DHT22;14031;50.158;8.626;2023-03-15T13:53:31;11.00;99.90
16174;DHT22;14031;50.158;8.626;2023-03-15T13:55:58;11.00;99.90
16174;DHT22;14031;50.158;8.626;2023-03-15T13:58:28;11.10;99.90
16174;DHT22;14031;50.158;8.626;2023-03-15T14:00:57;11.20;99.90
16174;DHT22;14031;50.158;8.626;2023-03-15T14:03:26;11.50;99.90
16174;DHT22;14031;50.158;8.626;2023-03-15T14:05:55;11.50;99.90
16174;DHT22;14031;50.158;8.626;2023-03-15T14:08:25;11.60;99.90
16174;DHT22;14031;50.158;8.626;2023-03-15T14:11:02;12.00;99.90
16174;DHT22;14031;50.158;8.626;2023-03-15T14:13:32;12.00;99.90
16174;DHT22;14031;50.158;8.626;2023-03-15T14:16:06;12.20;99.90
16174;DHT22;14031;50.158;8.626;2023-03-15T14:18:37;11.90;99.90
16174;DHT22;14031;50.158;8.626;2023-03-15T14:21:06;12.00;99.90
16174;DHT22;14031;50.158;8.626;2023-03-15T14:23:39;12.00;99.90
16174;DHT22;14031;50.158;8.626;2023-03-15T14:26:12;12.10;99.90
16174;DHT22;14031;50.158;8.626;2023-03-15T14:28:46;12.40;99.90
16174;DHT22;14031;50.158;8.626;2023-03-15T14:31:20;12.60;99.90
16174;DHT22;14031;50.158;8.626;2023-03-15T14:33:54;12.70;99.90
16174;DHT22;14031;50.158;8.626;2023-03-15T14:36:30;13.00;99.90
16174;DHT22;14031;50.158;8.626;2023-03-15T14:38:58;13.30;99.90
16174;DHT22;14031;50.158;8.626;2023-03-15T14:41:30;13.20;99.90
16174;DHT22;14031;50.158;8.626;2023-03-15T14:43:58;13.50;99.90
16174;DHT22;14031;50.158;8.626;2023-03-15T14:46:25;13.70;99.90
16174;DHT22;14031;50.158;8.626;2023-03-15T14:48:53;13.90;99.90
16174;DHT22;14031;50.158;8.626;2023-03-15T14:51:31;14.10;99.90
16174;DHT22;14031;50.158;8.626;2023-03-15T14:54:02;14.20;99.90
16174;DHT22;14031;50.158;8.626;2023-03-15T14:56:29;14.40;99.90
16174;DHT22;14031;50.158;8.626;2023-03-15T14:58:55;14.50;99.90
16174;DHT22;14031;50.158;8.626;2023-03-15T15:01:24;14.60;99.90
16174;DHT22;14031;50.158;8.626;2023-03-15T15:03:55;14.60;99.90
16174;DHT22;14031;50.158;8.626;2023-03-15T15:06:25;14.40;99.90
16174;DHT22;14031;50.158;8.626;2023-03-15T15:08:55;14.60;99.90
16174;DHT22;14031;50.158;8.626;2023-03-15T15:11:23;14.90;99.90
16174;DHT22;14031;50.158;8.626;2023-03-15T15:13:50;14.90;99.90
16174;DHT22;14031;50.158;8.626;2023-03-15T15:16:17;14.90;99.90
16174;DHT22;14031;50.158;8.626;2023-03-15T15:18:44;15.00;99.70
16174;DHT22;14031;50.158;8.626;2023-03-15T15:21:16;15.00;98.60
16174;DHT22;14031;50.158;8.626;2023-03-15T15:23:44;14.90;99.10
16174;DHT22;14031;50.158;8.626;2023-03-15T15:26:16;14.60;99.00
16174;DHT22;14031;50.158;8.626;2023-03-15T15:28:43;14.50;98.60
16174;DHT22;14031;50.158;8.626;2023-03-15T15:31:13;14.50;99.40
16174;DHT22;14031;50.158;8.626;2023-03-15T15:33:40;14.40;99.60
16174;DHT22;14031;50.158;8.626;2023-03-15T15:36:12;14.40;99.10
16174;DHT22;14031;50.158;8.626;2023-03-15T15:38:40;14.30;99.10
16174;DHT22;14031;50.158;8.626;2023-03-15T15:41:14;14.20;98.10
16174;DHT22;14031;50.158;8.626;2023-03-15T15:43:41;14.10;99.50
16174;DHT22;14031;50.158;8.626;2023-03-15T15:46:10;14.20;98.70
16174;DHT22;14031;50.158;8.626;2023-03-15T15:48:37;14.10;97.90
16174;DHT22;14031;50.158;8.626;2023-03-15T15:51:27;14.20;96.40
16174;DHT22;14031;50.158;8.626;2023-03-15T15:53:56;14.20;96.40
16174;DHT22;14031;50.158;8.626;2023-03-15T15:56:29;14.20;96.90
16174;DHT22;14031;50.158;8.626;2023-03-15T15:58:57;14.00;96.00
16174;DHT22;14031;50.158;8.626;2023-03-15T16:01:25;13.80;96.60
16174;DHT22;14031;50.158;8.626;2023-03-15T16:03:52;13.60;96.80
16174;DHT22;14031;50.158;8.626;2023-03-15T16:06:20;13.60;96.40
16174;DHT22;14031;50.158;8.626;2023-03-15T16:08:49;13.40;97.20
16174;DHT22;14031;50.158;8.626;2023-03-15T16:11:17;13.20;98.20